sensor_id;sensor_type;location;lat;lon;timestamp;pressure;altitude;pressure_sealevel;temperature;humidity
8451;BME280;4262;50.980;13.892;2024-03-23T00:54:34;86051.03;;;-142.97;55.99
8451;BME280;4262;50.980;13.892;2024-03-23T00:57:01;86090.41;;;-142.97;55.69
8451;BME280;4262;50.980;13.892;2024-03-23T00:59:26;86084.50;;;-142.97;55.59
8451;BME280;4262;50.980;13.892;2024-03-23T01:01:54;86066.78;;;-142.97;55.47
8451;BME280;4262;50.980;13.892;2024-03-23T01:04:20;86090.41;;;-142.97;55.09
8451;BME280;4262;50.980;13.892;2024-03-23T01:06:47;86054.97;;;-142.97;54.72
8451;BME280;4262;50.980;13.892;2024-03-23T01:09:14;86051.03;;;-142.97;54.65
8451;BME280;4262;50.980;13.892;2024-03-23T01:11:41;86049.03;;;-142.97;54.80
8451;BME280;4262;50.980;13.892;2024-03-23T01:14:07;86066.78;;;-142.97;54.77
8451;BME280;4262;50.980;13.892;2024-03-23T01:16:34;86078.59;;;-142.97;54.71
8451;BME280;4262;50.980;13.892;2024-03-23T01:18:59;86080.56;;;-142.97;54.87
8451;BME280;4262;50.980;13.892;2024-03-23T01:21:26;86068.75;;;-142.97;54.89
8451;BME280;4262;50.980;13.892;2024-03-23T01:23:54;86147.56;;;-142.97;54.93
8451;BME280;4262;50.980;13.892;2024-03-23T01:26:22;86088.44;;;-142.97;54.91
8451;BME280;4262;50.980;13.892;2024-03-23T01:28:48;86082.53;;;-142.97;54.84
8451;BME280;4262;50.980;13.892;2024-03-23T01:31:14;86094.38;;;-142.97;54.82
8451;BME280;4262;50.980;13.892;2024-03-23T01:33:41;86100.28;;;-142.97;54.79
8451;BME280;4262;50.980;13.892;2024-03-23T01:36:08;86068.75;;;-142.97;54.68
8451;BME280;4262;50.980;13.892;2024-03-23T01:38:34;86086.47;;;-142.97;54.87
8451;BME280;4262;50.980;13.892;2024-03-23T01:41:02;86119.97;;;-142.97;54.83
8451;BME280;4262;50.980;13.892;2024-03-23T01:43:29;86190.91;;;-142.97;54.98
8451;BME280;4262;50.980;13.892;2024-03-23T01:45:56;86145.59;;;-142.97;54.88
8451;BME280;4262;50.980;13.892;2024-03-23T01:48:22;86161.34;;;-142.97;55.19
8451;BME280;4262;50.980;13.892;2024-03-23T01:50:50;86147.56;;;-142.97;55.64
8451;BME280;4262;50.980;13.892;2024-03-23T01:53:16;86133.75;;;-142.97;55.83
8451;BME280;4262;50.980;13.892;2024-03-23T01:55:45;86179.09;;;-142.97;55.83
8451;BME280;4262;50.980;13.892;2024-03-23T01:58:10;86149.53;;;-142.97;56.04
8451;BME280;4262;50.980;13.892;2024-03-23T02:00:39;86167.25;;;-142.97;56.08
8451;BME280;4262;50.980;13.892;2024-03-23T02:03:22;86137.72;;;-142.97;55.79
8451;BME280;4262;50.980;13.892;2024-03-23T02:05:50;86177.09;;;-142.97;56.05
8451;BME280;4262;50.980;13.892;2024-03-23T02:08:17;86181.06;;;-142.97;56.55
8451;BME280;4262;50.980;13.892;2024-03-23T02:10:44;86149.53;;;-142.97;56.00
8451;BME280;4262;50.980;13.892;2024-03-23T02:13:10;86171.19;;;-142.97;56.02
8451;BME280;4262;50.980;13.892;2024-03-23T02:15:39;86169.22;;;-142.97;55.99
8451;BME280;4262;50.980;13.892;2024-03-23T02:18:06;86179.09;;;-142.97;56.20
8451;BME280;4262;50.980;13.892;2024-03-23T02:20:33;86188.94;;;-142.97;56.17
8451;BME280;4262;50.980;13.892;2024-03-23T02:23:00;86114.06;;;-142.97;55.91
8451;BME280;4262;50.980;13.892;2024-03-23T02:25:27;86186.97;;;-142.97;55.72
8451;BME280;4262;50.980;13.892;2024-03-23T02:27:53;86224.41;;;-142.97;56.24
8451;BME280;4262;50.980;13.892;2024-03-23T02:30:20;86185.00;;;-142.97;56.05
8451;BME280;4262;50.980;13.892;2024-03-23T02:32:46;86246.06;;;-142.97;55.40
8451;BME280;4262;50.980;13.892;2024-03-23T02:35:13;86253.94;;;-142.97;55.57
8451;BME280;4262;50.980;13.892;2024-03-23T02:37:39;86267.75;;;-142.97;56.73
8451;BME280;4262;50.980;13.892;2024-03-23T02:40:07;86251.97;;;-142.97;57.08
8451;BME280;4262;50.980;13.892;2024-03-23T02:42:33;86248.03;;;-142.97;56.41
8451;BME280;4262;50.980;13.892;2024-03-23T02:45:00;86246.06;;;-142.97;56.10
8451;BME280;4262;50.980;13.892;2024-03-23T02:47:26;86251.97;;;-142.97;55.69
8451;BME280;4262;50.980;13.892;2024-03-23T02:49:53;86240.16;;;-142.97;55.56
8451;BME280;4262;50.980;13.892;2024-03-23T02:52:20;86265.78;;;-142.97;55.88
8451;BME280;4262;50.980;13.892;2024-03-23T02:54:46;86295.31;;;-142.97;56.65
8451;BME280;4262;50.980;13.892;2024-03-23T02:57:13;86293.34;;;-142.97;57.31
8451;BME280;4262;50.980;13.892;2024-03-23T02:59:40;86344.59;;;-142.97;58.37
8451;BME280;4262;50.980;13.892;2024-03-23T03:02:07;86307.16;;;-142.97;59.11
8451;BME280;4262;50.980;13.892;2024-03-23T03:04:34;86291.38;;;-142.97;58.89
8451;BME280;4262;50.980;13.892;2024-03-23T03:07:00;86301.25;;;-142.97;57.69
8451;BME280;4262;50.980;13.892;2024-03-23T03:09:27;86281.53;;;-142.97;57.23
8451;BME280;4262;50.980;13.892;2024-03-23T03:11:53;86285.47;;;-142.97;57.49
8451;BME280;4262;50.980;13.892;2024-03-23T03:14:21;86356.41;;;-142.97;58.27
8451;BME280;4262;50.980;13.892;2024-03-23T03:16:47;86299.25;;;-142.97;58.67
8451;BME280;4262;50.980;13.892;2024-03-23T03:19:14;86305.19;;;-142.97;57.62
8451;BME280;4262;50.980;13.892;2024-03-23T03:21:42;86364.28;;;-142.97;58.30
8451;BME280;4262;50.980;13.892;2024-03-23T03:24:09;86385.97;;;-142.97;58.54
8451;BME280;4262;50.980;13.892;2024-03-23T03:26:35;86415.50;;;-142.97;59.55
8451;BME280;4262;50.980;13.892;2024-03-23T03:29:02;86411.56;;;-142.97;59.94
8451;BME280;4262;50.980;13.892;2024-03-23T03:31:29;86437.19;;;-142.97;59.44
8451;BME280;4262;50.980;13.892;2024-03-23T03:33:57;86437.19;;;-142.97;59.88
8451;BME280;4262;50.980;13.892;2024-03-23T03:36:22;86417.50;;;-142.97;59.82
8451;BME280;4262;50.980;13.892;2024-03-23T03:38:49;86411.56;;;-142.97;59.62
8451;BME280;4262;50.980;13.892;2024-03-23T03:41:15;86431.28;;;-142.97;60.33
8451;BME280;4262;50.980;13.892;2024-03-23T03:43:42;86429.31;;;-142.97;59.95
8451;BME280;4262;50.980;13.892;2024-03-23T03:46:08;86415.50;;;-142.97;59.33
8451;BME280;4262;50.980;13.892;2024-03-23T03:48:37;86378.06;;;-142.97;59.00
8451;BME280;4262;50.980;13.892;2024-03-23T03:51:04;86401.72;;;-142.97;57.87
8451;BME280;4262;50.980;13.892;2024-03-23T03:53:31;86378.06;;;-142.97;58.61
8451;BME280;4262;50.980;13.892;2024-03-23T03:56:00;86364.28;;;-142.97;58.73
8451;BME280;4262;50.980;13.892;2024-03-23T03:58:27;86378.06;;;-142.97;57.77
8451;BME280;4262;50.980;13.892;2024-03-23T04:00:53;86348.53;;;-142.97;57.38
8451;BME280;4262;50.980;13.892;2024-03-23T04:03:20;86421.44;;;-142.97;57.91
8451;BME280;4262;50.980;13.892;2024-03-23T04:05:51;86387.94;;;-142.97;58.41
8451;BME280;4262;50.980;13.892;2024-03-23T04:08:17;86358.38;;;-142.97;58.41
8451;BME280;4262;50.980;13.892;2024-03-23T04:10:43;86385.97;;;-142.97;58.30
8451;BME280;4262;50.980;13.892;2024-03-23T04:13:11;86380.06;;;-142.97;58.14
8451;BME280;4262;50.980;13.892;2024-03-23T04:15:36;86427.34;;;-142.97;59.02
8451;BME280;4262;50.980;13.892;2024-03-23T04:18:03;86431.28;;;-142.97;59.33
8451;BME280;4262;50.980;13.892;2024-03-23T04:20:29;86425.38;;;-142.97;59.87
8451;BME280;4262;50.980;13.892;2024-03-23T04:22:59;86437.19;;;-142.97;59.75
8451;BME280;4262;50.980;13.892;2024-03-23T04:25:25;86419.47;;;-142.97;58.98
8451;BME280;4262;50.980;13.892;2024-03-23T04:27:51;86439.16;;;-142.97;58.49
8451;BME280;4262;50.980;13.892;2024-03-23T04:30:17;86516.00;;;-142.97;59.51
8451;BME280;4262;50.980;13.892;2024-03-23T04:32:44;86531.78;;;-142.97;61.28
8451;BME280;4262;50.980;13.892;2024-03-23T04:35:11;86551.47;;;-142.97;61.20
8451;BME280;4262;50.980;13.892;2024-03-23T04:37:38;86535.72;;;-142.97;61.46
8451;BME280;4262;50.980;13.892;2024-03-23T04:40:09;86484.47;;;-142.97;60.21
8451;BME280;4262;50.980;13.892;2024-03-23T04:42:37;86512.06;;;-142.97;59.26
8451;BME280;4262;50.980;13.892;2024-03-23T04:45:04;86437.19;;;-142.97;60.14
8451;BME280;4262;50.980;13.892;2024-03-23T04:47:32;86517.97;;;-142.97;60.45
8451;BME280;4262;50.980;13.892;2024-03-23T04:50:02;86567.25;;;-142.97;61.05
8451;BME280;4262;50.980;13.892;2024-03-23T04:52:29;86583.00;;;-142.97;61.68
8451;BME280;4262;50.980;13.892;2024-03-23T04:54:55;86602.72;;;-142.97;61.67
8451;BME280;4262;50.980;13.892;2024-03-23T04:57:23;86569.22;;;-142.97;61.57
8451;BME280;4262;50.980;13.892;2024-03-23T04:59:50;86614.53;;;-142.97;61.31
8451;BME280;4262;50.980;13.892;2024-03-23T05:02:16;86571.19;;;-142.97;60.88
8451;BME280;4262;50.980;13.892;2024-03-23T05:04:42;86547.53;;;-142.97;60.79
8451;BME280;4262;50.980;13.892;2024-03-23T05:07:08;86598.75;;;-142.97;61.24
8451;BME280;4262;50.980;13.892;2024-03-23T05:09:35;86697.28;;;-142.97;62.91
8451;BME280;4262;50.980;13.892;2024-03-23T05:12:01;86677.59;;;-142.97;62.49
8451;BME280;4262;50.980;13.892;2024-03-23T05:14:29;86651.97;;;-142.97;61.86
8451;BME280;4262;50.980;13.892;2024-03-23T05:16:55;86697.28;;;-142.97;62.87
8451;BME280;4262;50.980;13.892;2024-03-23T05:19:22;86665.75;;;-142.97;62.65
8451;BME280;4262;50.980;13.892;2024-03-23T05:21:48;86673.66;;;-142.97;62.57
8451;BME280;4262;50.980;13.892;2024-03-23T05:24:15;86787.94;;;-142.97;63.61
8451;BME280;4262;50.980;13.892;2024-03-23T05:26:41;86713.06;;;-142.97;63.45
8451;BME280;4262;50.980;13.892;2024-03-23T05:29:07;86787.94;;;-142.97;64.66
8451;BME280;4262;50.980;13.892;2024-03-23T05:31:40;86689.41;;;-142.97;63.02
8451;BME280;4262;50.980;13.892;2024-03-23T05:34:07;86653.94;;;-142.97;63.59
8451;BME280;4262;50.980;13.892;2024-03-23T05:36:34;86681.53;;;-142.97;63.76
8451;BME280;4262;50.980;13.892;2024-03-23T05:39:01;86661.81;;;-142.97;63.59
8451;BME280;4262;50.980;13.892;2024-03-23T05:41:28;86750.50;;;-142.97;63.36
8451;BME280;4262;50.980;13.892;2024-03-23T05:43:54;86557.38;;;-142.97;62.35
8451;BME280;4262;50.980;13.892;2024-03-23T05:46:21;86569.22;;;-142.97;61.99
8451;BME280;4262;50.980;13.892;2024-03-23T05:48:48;86634.22;;;-142.97;61.73
8451;BME280;4262;50.980;13.892;2024-03-23T05:51:25;86575.13;;;-142.97;61.89
8451;BME280;4262;50.980;13.892;2024-03-23T05:53:51;86541.63;;;-142.97;62.39
8451;BME280;4262;50.980;13.892;2024-03-23T05:56:19;86516.00;;;-142.97;61.95
8451;BME280;4262;50.980;13.892;2024-03-23T05:58:45;86523.88;;;-142.97;62.20
8451;BME280;4262;50.980;13.892;2024-03-23T06:01:12;86464.78;;;-142.97;61.31
8451;BME280;4262;50.980;13.892;2024-03-23T06:03:38;86561.31;;;-142.97;62.08
8451;BME280;4262;50.980;13.892;2024-03-23T06:06:09;86594.81;;;-142.97;63.34
8451;BME280;4262;50.980;13.892;2024-03-23T06:08:37;86701.22;;;-142.97;64.09
8451;BME280;4262;50.980;13.892;2024-03-23T06:11:04;86663.78;;;-142.97;63.66
8451;BME280;4262;50.980;13.892;2024-03-23T06:13:31;86669.69;;;-142.97;64.41
8451;BME280;4262;50.980;13.892;2024-03-23T06:15:59;86640.16;;;-142.97;63.90
8451;BME280;4262;50.980;13.892;2024-03-23T06:18:25;86764.28;;;-142.97;65.05
8451;BME280;4262;50.980;13.892;2024-03-23T06:20:52;86778.09;;;-142.97;65.29
8451;BME280;4262;50.980;13.892;2024-03-23T06:23:20;86758.38;;;-142.97;65.46
8451;BME280;4262;50.980;13.892;2024-03-23T06:25:47;86659.84;;;-142.97;64.14
8451;BME280;4262;50.980;13.892;2024-03-23T06:28:13;86447.03;;;-142.97;64.97
8451;BME280;4262;50.980;13.892;2024-03-23T06:30:40;86787.94;;;-142.97;65.25
8451;BME280;4262;50.980;13.892;2024-03-23T06:33:06;86787.94;;;-142.97;65.33
8451;BME280;4262;50.980;13.892;2024-03-23T06:35:33;86791.88;;;-142.97;65.40
8451;BME280;4262;50.980;13.892;2024-03-23T06:37:59;86768.22;;;-142.97;65.25
8451;BME280;4262;50.980;13.892;2024-03-23T06:40:27;86657.88;;;-142.97;64.67
8451;BME280;4262;50.980;13.892;2024-03-23T06:42:53;86780.06;;;-142.97;65.43
8451;BME280;4262;50.980;13.892;2024-03-23T06:45:19;86760.34;;;-142.97;64.75
8451;BME280;4262;50.980;13.892;2024-03-23T06:47:49;86772.16;;;-142.97;65.15
8451;BME280;4262;50.980;13.892;2024-03-23T06:50:15;86803.69;;;-142.97;65.72
8451;BME280;4262;50.980;13.892;2024-03-23T06:52:41;86760.34;;;-142.97;65.06
8451;BME280;4262;50.980;13.892;2024-03-23T06:55:08;86809.63;;;-142.97;65.57
8451;BME280;4262;50.980;13.892;2024-03-23T06:57:35;86858.88;;;-142.97;66.08
8451;BME280;4262;50.980;13.892;2024-03-23T07:00:03;86768.22;;;-142.97;65.04
8451;BME280;4262;50.980;13.892;2024-03-23T07:02:29;86709.13;;;-142.97;65.02
8451;BME280;4262;50.980;13.892;2024-03-23T07:04:56;86713.06;;;-142.97;64.59
8451;BME280;4262;50.980;13.892;2024-03-23T07:07:22;86677.59;;;-142.97;64.55
8451;BME280;4262;50.980;13.892;2024-03-23T07:09:49;86640.16;;;-142.97;63.95
8451;BME280;4262;50.980;13.892;2024-03-23T07:12:14;86594.81;;;-142.97;63.83
8451;BME280;4262;50.980;13.892;2024-03-23T07:14:43;86703.19;;;-142.97;64.50
8451;BME280;4262;50.980;13.892;2024-03-23T07:17:09;86622.41;;;-142.97;64.07
8451;BME280;4262;50.980;13.892;2024-03-23T07:19:36;86693.34;;;-142.97;64.70
8451;BME280;4262;50.980;13.892;2024-03-23T07:22:02;86638.19;;;-142.97;64.35
8451;BME280;4262;50.980;13.892;2024-03-23T07:24:29;86563.28;;;-142.97;63.57
8451;BME280;4262;50.980;13.892;2024-03-23T07:26:56;86689.41;;;-142.97;63.84
8451;BME280;4262;50.980;13.892;2024-03-23T07:29:23;86707.16;;;-142.97;64.82
8451;BME280;4262;50.980;13.892;2024-03-23T07:31:50;86764.28;;;-142.97;65.35
8451;BME280;4262;50.980;13.892;2024-03-23T07:34:17;86681.53;;;-142.97;64.53
8451;BME280;4262;50.980;13.892;2024-03-23T07:36:43;86571.19;;;-142.97;63.63
8451;BME280;4262;50.980;13.892;2024-03-23T07:39:10;86577.09;;;-142.97;64.03
8451;BME280;4262;50.980;13.892;2024-03-23T07:41:36;86549.50;;;-142.97;63.74
8451;BME280;4262;50.980;13.892;2024-03-23T07:44:02;86586.94;;;-142.97;63.89
8451;BME280;4262;50.980;13.892;2024-03-23T07:46:28;86634.22;;;-142.97;64.41
8451;BME280;4262;50.980;13.892;2024-03-23T07:48:57;86648.03;;;-142.97;64.91
8451;BME280;4262;50.980;13.892;2024-03-23T07:51:23;86622.41;;;-142.97;65.00
8451;BME280;4262;50.980;13.892;2024-03-23T07:53:50;86628.31;;;-142.97;65.05
8451;BME280;4262;50.980;13.892;2024-03-23T07:56:16;86527.84;;;-142.97;64.63
8451;BME280;4262;50.980;13.892;2024-03-23T07:58:44;86391.88;;;-142.97;62.96
8451;BME280;4262;50.980;13.892;2024-03-23T08:01:11;86370.19;;;-142.97;63.08
8451;BME280;4262;50.980;13.892;2024-03-23T08:03:41;86265.78;;;-142.97;62.36
8451;BME280;4262;50.980;13.892;2024-03-23T08:06:10;86220.47;;;-142.97;61.99
8451;BME280;4262;50.980;13.892;2024-03-23T08:08:37;86185.00;;;-142.97;60.87
8451;BME280;4262;50.980;13.892;2024-03-23T08:11:03;86157.41;;;-142.97;60.18
8451;BME280;4262;50.980;13.892;2024-03-23T08:13:30;86015.56;;;-142.97;60.27
8451;BME280;4262;50.980;13.892;2024-03-23T08:15:56;86161.34;;;-142.97;61.76
8451;BME280;4262;50.980;13.892;2024-03-23T08:18:23;86181.06;;;-142.97;61.73
8451;BME280;4262;50.980;13.892;2024-03-23T08:20:55;86177.09;;;-142.97;61.91
8451;BME280;4262;50.980;13.892;2024-03-23T08:23:24;86092.38;;;-142.97;61.28
8451;BME280;4262;50.980;13.892;2024-03-23T08:25:50;86027.38;;;-142.97;60.92
8451;BME280;4262;50.980;13.892;2024-03-23T08:28:17;86013.59;;;-142.97;59.51
8451;BME280;4262;50.980;13.892;2024-03-23T08:30:43;86039.19;;;-142.97;59.99
8451;BME280;4262;50.980;13.892;2024-03-23T08:33:10;85982.06;;;-142.97;60.25
8451;BME280;4262;50.980;13.892;2024-03-23T08:35:35;85194.09;;;-142.97;63.37
8451;BME280;4262;50.980;13.892;2024-03-23T08:38:03;85517.16;;;-142.97;54.94
8451;BME280;4262;50.980;13.892;2024-03-23T08:40:30;85485.63;;;-142.97;52.73
8451;BME280;4262;50.980;13.892;2024-03-23T08:42:57;85603.81;;;-142.97;53.60
8451;BME280;4262;50.980;13.892;2024-03-23T08:45:24;85607.75;;;-142.97;54.78
8451;BME280;4262;50.980;13.892;2024-03-23T08:47:51;85645.19;;;-142.97;54.85
8451;BME280;4262;50.980;13.892;2024-03-23T08:50:17;85680.66;;;-142.97;55.47
8451;BME280;4262;50.980;13.892;2024-03-23T08:52:44;85725.97;;;-142.97;55.51
8451;BME280;4262;50.980;13.892;2024-03-23T08:55:10;85777.19;;;-142.97;56.09
8451;BME280;4262;50.980;13.892;2024-03-23T08:57:38;85832.34;;;-142.97;56.74
8451;BME280;4262;50.980;13.892;2024-03-23T09:00:06;85865.81;;;-142.97;56.78
8451;BME280;4262;50.980;13.892;2024-03-23T09:02:34;85903.25;;;-142.97;57.37
8451;BME280;4262;50.980;13.892;2024-03-23T09:05:00;85936.75;;;-142.97;57.60
8451;BME280;4262;50.980;13.892;2024-03-23T09:07:30;86047.06;;;-142.97;60.72
8451;BME280;4262;50.980;13.892;2024-03-23T09:09:56;86039.19;;;-142.97;60.99
8451;BME280;4262;50.980;13.892;2024-03-23T09:12:23;86003.72;;;-142.97;60.23
8451;BME280;4262;50.980;13.892;2024-03-23T09:14:50;85930.84;;;-142.97;59.93
8451;BME280;4262;50.980;13.892;2024-03-23T09:17:18;85991.91;;;-142.97;59.26
8451;BME280;4262;50.980;13.892;2024-03-23T09:19:44;85991.91;;;-142.97;61.09
8451;BME280;4262;50.980;13.892;2024-03-23T09:22:11;85948.56;;;-142.97;60.48
8451;BME280;4262;50.980;13.892;2024-03-23T09:24:38;85739.75;;;-142.97;59.55
8451;BME280;4262;50.980;13.892;2024-03-23T09:27:06;85875.69;;;-142.97;58.99
8451;BME280;4262;50.980;13.892;2024-03-23T09:29:32;85903.25;;;-142.97;59.11
8451;BME280;4262;50.980;13.892;2024-03-23T09:32:00;86031.31;;;-142.97;61.25
8451;BME280;4262;50.980;13.892;2024-03-23T09:34:25;86135.72;;;-142.97;61.92
8451;BME280;4262;50.980;13.892;2024-03-23T09:36:52;86287.44;;;-142.97;63.70
8451;BME280;4262;50.980;13.892;2024-03-23T09:39:18;86299.25;;;-142.97;63.20
8451;BME280;4262;50.980;13.892;2024-03-23T09:41:47;86096.34;;;-142.97;58.94
8451;BME280;4262;50.980;13.892;2024-03-23T09:44:12;85976.16;;;-142.97;57.69
8451;BME280;4262;50.980;13.892;2024-03-23T09:46:39;85946.59;;;-142.97;56.58
8451;BME280;4262;50.980;13.892;2024-03-23T09:49:07;86021.47;;;-142.97;55.82
8451;BME280;4262;50.980;13.892;2024-03-23T09:51:36;86015.56;;;-142.97;56.61
8451;BME280;4262;50.980;13.892;2024-03-23T09:54:02;86005.69;;;-142.97;56.07
8451;BME280;4262;50.980;13.892;2024-03-23T09:56:28;86116.03;;;-142.97;58.35
8451;BME280;4262;50.980;13.892;2024-03-23T09:59:00;86324.88;;;-142.97;62.21
8451;BME280;4262;50.980;13.892;2024-03-23T10:01:27;86774.13;;;-142.97;66.65
8451;BME280;4262;50.980;13.892;2024-03-23T10:03:54;87170.25;;;-142.97;68.97
8451;BME280;4262;50.980;13.892;2024-03-23T10:06:23;87067.78;;;-142.97;68.46
8451;BME280;4262;50.980;13.892;2024-03-23T10:08:50;87229.38;;;-142.97;69.05
8451;BME280;4262;50.980;13.892;2024-03-23T10:11:17;87219.53;;;-142.97;68.94
8451;BME280;4262;50.980;13.892;2024-03-23T10:13:43;87479.69;;;-142.97;69.58
8451;BME280;4262;50.980;13.892;2024-03-23T10:16:12;87599.91;;;-142.97;70.43
8451;BME280;4262;50.980;13.892;2024-03-23T10:18:45;87690.56;;;-142.97;70.63
8451;BME280;4262;50.980;13.892;2024-03-23T10:21:14;87363.41;;;-142.97;69.10
8451;BME280;4262;50.980;13.892;2024-03-23T10:23:42;87122.94;;;-142.97;67.65
8451;BME280;4262;50.980;13.892;2024-03-23T10:26:17;87024.41;;;-142.97;67.17
8451;BME280;4262;50.980;13.892;2024-03-23T10:28:57;87290.47;;;-142.97;68.25
8451;BME280;4262;50.980;13.892;2024-03-23T10:31:25;87260.91;;;-142.97;68.03
8451;BME280;4262;50.980;13.892;2024-03-23T10:33:51;87318.06;;;-142.97;67.86
8451;BME280;4262;50.980;13.892;2024-03-23T10:36:20;87229.38;;;-142.97;67.91
8451;BME280;4262;50.980;13.892;2024-03-23T10:38:50;87079.59;;;-142.97;66.38
8451;BME280;4262;50.980;13.892;2024-03-23T10:41:16;87055.94;;;-142.97;66.49
8451;BME280;4262;50.980;13.892;2024-03-23T10:43:45;86990.91;;;-142.97;65.71
8451;BME280;4262;50.980;13.892;2024-03-23T10:46:11;86935.72;;;-142.97;65.47
8451;BME280;4262;50.980;13.892;2024-03-23T10:48:38;87077.63;;;-142.97;66.03
8451;BME280;4262;50.980;13.892;2024-03-23T10:51:05;87044.13;;;-142.97;66.04
8451;BME280;4262;50.980;13.892;2024-03-23T10:53:33;87260.91;;;-142.97;67.64
8451;BME280;4262;50.980;13.892;2024-03-23T10:56:01;87243.16;;;-142.97;67.57
8451;BME280;4262;50.980;13.892;2024-03-23T10:58:31;87063.81;;;-142.97;66.99
8451;BME280;4262;50.980;13.892;2024-03-23T11:00:58;87434.34;;;-142.97;68.82
8451;BME280;4262;50.980;13.892;2024-03-23T11:03:33;87461.94;;;-142.97;69.11
8451;BME280;4262;50.980;13.892;2024-03-23T11:05:59;87256.97;;;-142.97;68.01
8451;BME280;4262;50.980;13.892;2024-03-23T11:08:33;87712.25;;;-142.97;70.56
8451;BME280;4262;50.980;13.892;2024-03-23T11:11:15;87266.81;;;-142.97;67.98
8451;BME280;4262;50.980;13.892;2024-03-23T11:13:43;87178.13;;;-142.97;67.36
8451;BME280;4262;50.980;13.892;2024-03-23T11:16:16;87028.34;;;-142.97;66.23
8451;BME280;4262;50.980;13.892;2024-03-23T11:18:43;86986.97;;;-142.97;66.27
8451;BME280;4262;50.980;13.892;2024-03-23T11:21:10;87048.06;;;-142.97;66.50
8451;BME280;4262;50.980;13.892;2024-03-23T11:23:37;87020.47;;;-142.97;65.89
8451;BME280;4262;50.980;13.892;2024-03-23T11:26:07;86941.66;;;-142.97;65.19
8451;BME280;4262;50.980;13.892;2024-03-23T11:28:35;86998.78;;;-142.97;65.96
8451;BME280;4262;50.980;13.892;2024-03-23T11:31:00;87016.53;;;-142.97;65.92
8451;BME280;4262;50.980;13.892;2024-03-23T11:33:27;86979.09;;;-142.97;65.30
8451;BME280;4262;50.980;13.892;2024-03-23T11:35:54;87008.66;;;-142.97;65.24
8451;BME280;4262;50.980;13.892;2024-03-23T11:38:21;87053.97;;;-142.97;66.15
8451;BME280;4262;50.980;13.892;2024-03-23T11:40:48;87065.78;;;-142.97;66.27
8451;BME280;4262;50.980;13.892;2024-03-23T11:43:16;87511.22;;;-142.97;69.38
8451;BME280;4262;50.980;13.892;2024-03-23T11:45:44;87144.63;;;-142.97;66.63
8451;BME280;4262;50.980;13.892;2024-03-23T11:48:12;86916.03;;;-142.97;64.95
8451;BME280;4262;50.980;13.892;2024-03-23T11:50:40;86791.88;;;-142.97;63.85
8451;BME280;4262;50.980;13.892;2024-03-23T11:53:14;86736.69;;;-142.97;63.66
8451;BME280;4262;50.980;13.892;2024-03-23T11:55:45;86780.06;;;-142.97;63.61
8451;BME280;4262;50.980;13.892;2024-03-23T11:58:13;86851.00;;;-142.97;64.16
8451;BME280;4262;50.980;13.892;2024-03-23T12:00:39;86831.28;;;-142.97;64.27
8451;BME280;4262;50.980;13.892;2024-03-23T12:03:08;86770.19;;;-142.97;63.97
8451;BME280;4262;50.980;13.892;2024-03-23T12:05:36;86240.16;;;-142.97;55.07
8451;BME280;4262;50.980;13.892;2024-03-23T12:08:21;86356.41;;;-142.97;53.97
8451;BME280;4262;50.980;13.892;2024-03-23T12:10:49;86220.47;;;-142.97;52.48
8451;BME280;4262;50.980;13.892;2024-03-23T12:13:18;86382.03;;;-142.97;50.98
8451;BME280;4262;50.980;13.892;2024-03-23T12:15:44;86151.50;;;-142.97;50.81
8451;BME280;4262;50.980;13.892;2024-03-23T12:18:13;86240.16;;;-142.97;51.29
8451;BME280;4262;50.980;13.892;2024-03-23T12:20:39;86161.34;;;-142.97;49.82
8451;BME280;4262;50.980;13.892;2024-03-23T12:23:09;86133.75;;;-142.97;48.49
8451;BME280;4262;50.980;13.892;2024-03-23T12:25:38;86139.69;;;-142.97;48.85
8451;BME280;4262;50.980;13.892;2024-03-23T12:28:05;85987.97;;;-142.97;48.97
8451;BME280;4262;50.980;13.892;2024-03-23T12:30:35;86029.34;;;-142.97;47.69
8451;BME280;4262;50.980;13.892;2024-03-23T12:33:02;86127.84;;;-142.97;47.79
8451;BME280;4262;50.980;13.892;2024-03-23T12:35:30;86137.72;;;-142.97;48.06
8451;BME280;4262;50.980;13.892;2024-03-23T12:37:57;86151.50;;;-142.97;47.50
8451;BME280;4262;50.980;13.892;2024-03-23T12:40:23;85954.47;;;-142.97;46.77
8451;BME280;4262;50.980;13.892;2024-03-23T12:42:50;86076.63;;;-142.97;46.56
8451;BME280;4262;50.980;13.892;2024-03-23T12:45:16;86009.66;;;-142.97;46.82
8451;BME280;4262;50.980;13.892;2024-03-23T12:47:43;86125.88;;;-142.97;46.23
8451;BME280;4262;50.980;13.892;2024-03-23T12:50:09;86031.31;;;-142.97;45.45
8451;BME280;4262;50.980;13.892;2024-03-23T12:52:38;86118.00;;;-142.97;45.33
8451;BME280;4262;50.980;13.892;2024-03-23T12:55:04;85932.81;;;-142.97;44.70
8451;BME280;4262;50.980;13.892;2024-03-23T12:57:32;85966.31;;;-142.97;44.72
8451;BME280;4262;50.980;13.892;2024-03-23T12:59:58;85980.09;;;-142.97;44.76
8451;BME280;4262;50.980;13.892;2024-03-23T13:02:26;86043.13;;;-142.97;45.07
8451;BME280;4262;50.980;13.892;2024-03-23T13:04:52;85999.78;;;-142.97;45.25
8451;BME280;4262;50.980;13.892;2024-03-23T13:07:20;86139.69;;;-142.97;45.57
8451;BME280;4262;50.980;13.892;2024-03-23T13:09:50;86173.16;;;-142.97;45.82
8451;BME280;4262;50.980;13.892;2024-03-23T13:12:17;86129.81;;;-142.97;46.09
8451;BME280;4262;50.980;13.892;2024-03-23T13:14:44;85976.16;;;-142.97;45.12
8451;BME280;4262;50.980;13.892;2024-03-23T13:17:11;86082.53;;;-142.97;44.47
8451;BME280;4262;50.980;13.892;2024-03-23T13:19:38;86088.44;;;-142.97;44.58
8451;BME280;4262;50.980;13.892;2024-03-23T13:22:05;86153.47;;;-142.97;44.88
8451;BME280;4262;50.980;13.892;2024-03-23T13:24:32;86129.81;;;-142.97;44.54
8451;BME280;4262;50.980;13.892;2024-03-23T13:26:59;86112.09;;;-142.97;44.74
8451;BME280;4262;50.980;13.892;2024-03-23T13:29:25;86210.59;;;-142.97;45.16
8451;BME280;4262;50.980;13.892;2024-03-23T13:31:52;86212.56;;;-142.97;45.31
8451;BME280;4262;50.980;13.892;2024-03-23T13:34:18;86181.06;;;-142.97;44.95
8451;BME280;4262;50.980;13.892;2024-03-23T13:36:45;86145.59;;;-142.97;45.00
8451;BME280;4262;50.980;13.892;2024-03-23T13:39:12;86056.94;;;-142.97;44.81
8451;BME280;4262;50.980;13.892;2024-03-23T13:41:40;86051.03;;;-142.97;44.07
8451;BME280;4262;50.980;13.892;2024-03-23T13:44:08;86015.56;;;-142.97;43.77